createdAt,value
2023-06-20T00:00:13.151Z,8.37
2023-06-20T00:02:41.178Z,8.20
2023-06-20T00:05:09.291Z,8.60
2023-06-20T00:07:37.239Z,8.77
2023-06-20T00:10:05.543Z,8.77
2023-06-20T00:12:33.613Z,8.93
2023-06-20T00:15:01.549Z,8.43
2023-06-20T00:17:30.883Z,9.27
2023-06-20T00:19:58.866Z,8.60
2023-06-20T00:22:26.742Z,9.00
2023-06-20T00:24:54.662Z,8.93
2023-06-20T00:27:22.654Z,9.23
2023-06-20T00:29:50.547Z,8.83
2023-06-20T00:32:18.529Z,9.10
2023-06-20T00:34:47.830Z,9.10
2023-06-20T00:37:15.757Z,9.33
2023-06-20T00:39:43.849Z,10.00
2023-06-20T00:42:19.307Z,9.50
2023-06-20T00:44:47.444Z,9.37
2023-06-20T00:47:17.632Z,9.20
2023-06-20T00:49:49.198Z,10.70
2023-06-20T00:52:19.773Z,10.77
2023-06-20T00:54:49.371Z,10.90
2023-06-20T00:57:20.289Z,10.13
2023-06-20T00:59:48.856Z,10.83
2023-06-20T01:02:17.401Z,10.53
2023-06-20T01:04:48.807Z,9.43
2023-06-20T01:07:25.379Z,9.63
2023-06-20T01:10:01.855Z,9.83
2023-06-20T01:12:37.843Z,9.70
2023-06-20T01:15:15.449Z,9.50
2023-06-20T01:17:50.541Z,9.53
2023-06-20T01:20:25.130Z,8.90
2023-06-20T01:23:02.290Z,9.43
2023-06-20T01:25:37.563Z,9.93
2023-06-20T01:28:21.941Z,9.53
2023-06-20T01:30:57.284Z,9.30
2023-06-20T01:33:31.175Z,10.03
2023-06-20T01:36:03.047Z,10.03
2023-06-20T01:38:34.590Z,10.50
2023-06-20T01:41:04.483Z,10.30
2023-06-20T01:43:34.360Z,11.17
2023-06-20T01:46:05.630Z,9.87
2023-06-20T01:48:36.025Z,9.63
2023-06-20T01:51:04.310Z,10.93
2023-06-20T01:53:34.690Z,10.10
2023-06-20T01:56:04.087Z,10.27
2023-06-20T01:58:33.571Z,10.33
2023-06-20T02:01:03.706Z,9.37
2023-06-20T02:03:32.548Z,9.57
2023-06-20T02:06:02.721Z,9.07
2023-06-20T02:08:32.174Z,9.40
2023-06-20T02:11:02.619Z,9.27
2023-06-20T02:13:31.121Z,9.70
2023-06-20T02:16:01.603Z,9.50
2023-06-20T02:18:33.092Z,11.20
2023-06-20T02:21:06.428Z,11.83
2023-06-20T02:23:36.810Z,11.70
2023-06-20T02:26:10.157Z,11.83
2023-06-20T02:28:42.228Z,10.70
2023-06-20T02:31:15.714Z,10.13
2023-06-20T02:33:46.276Z,11.03
2023-06-20T02:36:15.464Z,10.53
2023-06-20T02:38:43.515Z,10.50
2023-06-20T02:41:12.851Z,10.77
2023-06-20T02:43:40.742Z,10.37
2023-06-20T02:46:15.711Z,10.13
2023-06-20T02:48:53.021Z,11.43
2023-06-20T02:51:26.307Z,11.10
2023-06-20T02:54:06.136Z,11.30
2023-06-20T02:56:39.160Z,11.57
2023-06-20T02:59:09.866Z,11.40
2023-06-20T03:01:39.887Z,10.50
2023-06-20T03:04:09.490Z,10.67
2023-06-20T03:06:39.001Z,10.43
2023-06-20T03:09:07.162Z,10.67
2023-06-20T03:11:36.945Z,11.47
2023-06-20T03:14:06.937Z,11.03
2023-06-20T03:16:35.123Z,11.77
2023-06-20T03:19:04.168Z,10.70
2023-06-20T03:21:32.072Z,10.80
2023-06-20T03:24:00.060Z,11.10
2023-06-20T03:26:28.007Z,11.17
2023-06-20T03:28:57.276Z,11.70
2023-06-20T03:31:25.310Z,10.83
2023-06-20T03:33:53.246Z,11.53
2023-06-20T03:36:21.130Z,11.10
2023-06-20T03:38:49.294Z,10.63
2023-06-20T03:41:17.199Z,11.93
2023-06-20T03:43:45.105Z,11.30
2023-06-20T03:46:14.422Z,10.77
2023-06-20T03:48:42.378Z,11.17
2023-06-20T03:51:10.257Z,11.53
2023-06-20T03:53:38.212Z,11.60
2023-06-20T03:56:06.438Z,11.80
2023-06-20T03:58:34.330Z,11.90
2023-06-20T04:01:02.476Z,11.90
2023-06-20T04:03:32.421Z,12.30
2023-06-20T04:06:02.583Z,12.30
2023-06-20T04:08:30.905Z,12.37
2023-06-20T04:11:00.573Z,11.90
2023-06-20T04:13:29.097Z,11.23
2023-06-20T04:15:57.197Z,11.67
2023-06-20T04:18:25.107Z,11.07
2023-06-20T04:20:54.530Z,11.67
2023-06-20T04:23:22.589Z,11.37
2023-06-20T04:25:50.600Z,11.50
2023-06-20T04:28:19.013Z,11.20
2023-06-20T04:30:46.998Z,11.57
2023-06-20T04:33:15.033Z,11.50
2023-06-20T04:35:43.014Z,11.97
2023-06-20T04:38:13.767Z,12.40
2023-06-20T04:40:42.851Z,11.50
2023-06-20T04:43:10.747Z,12.27
2023-06-20T04:45:39.730Z,12.40
2023-06-20T04:48:07.839Z,12.20
2023-06-20T04:50:36.043Z,12.07
2023-06-20T04:53:04.503Z,12.80
2023-06-20T04:55:33.782Z,12.17
2023-06-20T04:58:01.678Z,14.37
2023-06-20T05:00:29.733Z,13.13
2023-06-20T05:03:00.086Z,13.10
2023-06-20T05:05:30.732Z,13.00
2023-06-20T05:07:58.939Z,14.13
2023-06-20T05:10:27.114Z,12.80
2023-06-20T05:12:56.776Z,12.47
2023-06-20T05:15:26.099Z,12.83
2023-06-20T05:17:54.996Z,12.63
2023-06-20T05:20:23.349Z,12.47
2023-06-20T05:22:51.506Z,12.90
2023-06-20T05:25:19.692Z,12.73
2023-06-20T05:27:48.731Z,12.33
2023-06-20T05:30:18.369Z,13.57
2023-06-20T05:32:46.450Z,13.37
2023-06-20T05:35:14.613Z,13.33
2023-06-20T05:37:46.349Z,14.03
2023-06-20T05:40:16.722Z,13.10
2023-06-20T05:42:44.958Z,13.93
2023-06-20T05:45:13.326Z,14.27
2023-06-20T05:47:45.296Z,13.87
2023-06-20T05:50:13.340Z,13.90
2023-06-20T05:52:41.349Z,13.80
2023-06-20T05:55:10.845Z,13.97
2023-06-20T05:57:39.346Z,13.73
2023-06-20T06:00:13.573Z,14.53
2023-06-20T06:02:45.936Z,14.10
2023-06-20T06:05:14.091Z,14.33
2023-06-20T06:07:42.022Z,14.33
2023-06-20T06:10:10.981Z,14.37
2023-06-20T06:12:39.669Z,14.37
2023-06-20T06:15:09.377Z,14.40
2023-06-20T06:17:37.583Z,15.07
2023-06-20T06:20:13.118Z,15.47
2023-06-20T06:22:41.059Z,15.17
2023-06-20T06:25:09.760Z,15.17
2023-06-20T06:27:37.762Z,14.67
2023-06-20T06:30:06.466Z,14.90
2023-06-20T06:32:37.059Z,13.77
2023-06-20T06:35:09.554Z,14.50
2023-06-20T06:37:37.766Z,15.00
2023-06-20T06:40:07.730Z,14.97
2023-06-20T06:42:35.839Z,14.23
2023-06-20T06:45:04.620Z,14.30
2023-06-20T06:47:32.549Z,14.40
2023-06-20T06:50:00.467Z,14.47
2023-06-20T06:52:32.264Z,15.10
2023-06-20T06:55:00.174Z,14.60
2023-06-20T06:57:28.280Z,14.53
2023-06-20T06:59:56.204Z,15.20
2023-06-20T07:02:24.311Z,15.13
2023-06-20T07:04:52.243Z,15.40
2023-06-20T07:07:20.132Z,15.37
2023-06-20T07:09:49.385Z,14.90
2023-06-20T07:12:17.330Z,14.37
2023-06-20T07:14:45.224Z,13.63
2023-06-20T07:17:13.122Z,13.93
2023-06-20T07:19:41.056Z,12.98
2023-06-20T07:22:08.943Z,13.13
2023-06-20T07:24:37.012Z,12.98
2023-06-20T07:27:07.372Z,13.20
2023-06-20T07:29:35.351Z,13.50
2023-06-20T07:32:03.968Z,13.40
2023-06-20T07:34:31.940Z,12.13
2023-06-20T07:36:59.856Z,12.60
2023-06-20T07:39:27.728Z,11.23
2023-06-20T07:41:55.658Z,11.48
2023-06-20T07:44:25.043Z,10.60
2023-06-20T07:46:52.959Z,10.98
2023-06-20T07:49:20.918Z,11.43
2023-06-20T07:51:48.843Z,11.15
2023-06-20T07:54:16.888Z,11.23
2023-06-20T07:56:44.810Z,11.77
2023-06-20T07:59:12.967Z,12.80
2023-06-20T08:01:42.348Z,13.30
2023-06-20T08:04:10.397Z,13.38
2023-06-20T08:06:38.424Z,13.13
2023-06-20T08:09:06.653Z,13.38
2023-06-20T08:11:35.808Z,13.02
2023-06-20T08:14:04.031Z,13.05
2023-06-20T08:16:32.847Z,13.48
2023-06-20T08:19:02.319Z,12.30
2023-06-20T08:21:30.195Z,12.63
2023-06-20T08:23:58.296Z,13.18
2023-06-20T08:26:26.309Z,12.38
2023-06-20T08:28:54.234Z,12.35
2023-06-20T08:31:22.317Z,12.50
2023-06-20T08:33:50.262Z,12.10
2023-06-20T08:36:21.809Z,12.05
2023-06-20T08:38:49.722Z,12.18
2023-06-20T08:41:20.071Z,11.65
2023-06-20T08:43:49.424Z,11.68
2023-06-20T08:46:17.403Z,11.40
2023-06-20T08:48:45.536Z,10.95
2023-06-20T08:51:17.656Z,11.38
2023-06-20T08:53:48.557Z,11.43
2023-06-20T08:56:18.547Z,11.75
2023-06-20T08:58:46.599Z,11.88
2023-06-20T09:01:14.682Z,11.77
2023-06-20T09:03:42.953Z,11.93
2023-06-20T09:06:10.952Z,12.05
2023-06-20T09:08:40.565Z,11.35
2023-06-20T09:11:11.593Z,10.90
2023-06-20T09:13:41.541Z,11.07
2023-06-20T09:16:10.358Z,10.30
2023-06-20T09:18:41.427Z,10.45
2023-06-20T09:21:16.285Z,10.00
2023-06-20T09:23:44.203Z,10.23
2023-06-20T09:26:18.519Z,10.48
2023-06-20T09:28:47.058Z,11.15
2023-06-20T09:31:15.951Z,10.90
2023-06-20T09:33:44.266Z,9.95
2023-06-20T09:36:13.166Z,10.40
2023-06-20T09:38:43.999Z,10.48
2023-06-20T09:41:18.345Z,9.57
2023-06-20T09:43:46.453Z,10.60
2023-06-20T09:46:15.377Z,9.40
2023-06-20T09:48:44.402Z,9.63
2023-06-20T09:51:12.616Z,8.82
2023-06-20T09:53:48.977Z,8.45
2023-06-20T09:56:22.000Z,8.48
2023-06-20T09:58:50.118Z,9.25
2023-06-20T10:01:22.393Z,9.63
2023-06-20T10:03:51.820Z,8.93
2023-06-20T10:06:20.864Z,8.40
2023-06-20T10:08:50.150Z,8.63
2023-06-20T10:11:19.536Z,8.90
2023-06-20T10:13:48.041Z,9.13
2023-06-20T10:16:16.119Z,9.20
2023-06-20T10:18:44.535Z,8.70
2023-06-20T10:21:15.586Z,8.48
2023-06-20T10:23:44.045Z,8.57
2023-06-20T10:26:13.894Z,8.27
2023-06-20T10:28:43.832Z,8.00
2023-06-20T10:31:11.811Z,7.35
2023-06-20T10:33:41.419Z,8.50
2023-06-20T10:36:10.760Z,8.10
2023-06-20T10:38:42.312Z,8.00
2023-06-20T10:41:13.877Z,7.53
2023-06-20T10:43:51.744Z,6.80
2023-06-20T10:46:20.562Z,7.43
2023-06-20T10:48:48.816Z,7.80
2023-06-20T10:51:16.882Z,7.40
2023-06-20T10:53:44.770Z,6.80
2023-06-20T10:56:27.563Z,8.45
2023-06-20T10:58:56.863Z,8.43
2023-06-20T11:01:29.641Z,8.82
2023-06-20T11:03:58.332Z,7.72
2023-06-20T11:06:26.260Z,7.32
2023-06-20T11:08:54.195Z,7.95
2023-06-20T11:11:33.487Z,8.15
2023-06-20T11:14:12.931Z,8.38
2023-06-20T11:16:41.223Z,8.07
2023-06-20T11:19:16.367Z,8.55
2023-06-20T11:21:54.251Z,8.25
2023-06-20T11:24:23.070Z,8.05
2023-06-20T11:26:51.222Z,8.25
2023-06-20T11:29:20.551Z,7.95
2023-06-20T11:31:48.467Z,8.20
2023-06-20T11:34:16.740Z,7.10
2023-06-20T11:36:44.660Z,8.00
2023-06-20T11:39:15.361Z,8.13
2023-06-20T11:41:43.766Z,7.72
2023-06-20T11:44:25.597Z,7.63
2023-06-20T11:46:53.818Z,7.70
2023-06-20T11:49:31.603Z,7.55
2023-06-20T11:51:59.536Z,7.82
2023-06-20T11:54:27.711Z,7.35
2023-06-20T11:56:56.570Z,7.60
2023-06-20T11:59:26.243Z,7.15
2023-06-20T12:01:54.916Z,6.80
2023-06-20T12:04:23.805Z,7.68
2023-06-20T12:07:04.982Z,6.88
2023-06-20T12:09:41.573Z,6.85
2023-06-20T12:12:10.732Z,7.15
2023-06-20T12:14:40.066Z,6.65
2023-06-20T12:17:08.012Z,6.63
2023-06-20T12:19:36.055Z,7.07
2023-06-20T12:22:04.124Z,7.05
2023-06-20T12:24:32.071Z,6.40
2023-06-20T12:27:00.085Z,6.70
2023-06-20T12:29:28.014Z,6.95
2023-06-20T12:31:57.353Z,7.63
2023-06-20T12:34:25.359Z,7.20
2023-06-20T12:36:53.767Z,6.40
2023-06-20T12:39:21.682Z,6.30
2023-06-20T12:41:49.983Z,6.15
2023-06-20T12:44:17.918Z,6.45
2023-06-20T12:46:45.816Z,6.30
2023-06-20T12:49:15.151Z,7.00
2023-06-20T12:51:43.107Z,6.43
2023-06-20T12:54:11.407Z,6.20
2023-06-20T12:56:39.347Z,7.00
2023-06-20T12:59:07.359Z,6.32
2023-06-20T13:01:35.342Z,6.70
2023-06-20T13:04:04.982Z,5.72
2023-06-20T13:06:36.633Z,6.13
2023-06-20T13:09:06.993Z,5.63
2023-06-20T13:11:34.989Z,6.45
2023-06-20T13:14:02.964Z,6.32
2023-06-20T13:16:33.207Z,5.78
2023-06-20T13:19:02.794Z,5.90
2023-06-20T13:21:30.775Z,6.07
2023-06-20T13:24:08.808Z,6.53
2023-06-20T13:26:37.952Z,6.05
2023-06-20T13:29:05.973Z,5.93
2023-06-20T13:31:34.191Z,5.85
2023-06-20T13:34:02.196Z,6.10
2023-06-20T13:36:30.618Z,6.28
2023-06-20T13:39:01.552Z,5.90
2023-06-20T13:41:29.588Z,6.32
2023-06-20T13:43:57.465Z,5.85
2023-06-20T13:46:25.385Z,5.63
2023-06-20T13:48:53.515Z,5.95
2023-06-20T13:51:21.408Z,6.05
2023-06-20T13:53:50.398Z,5.53
2023-06-20T13:56:19.769Z,5.43
2023-06-20T13:58:47.702Z,5.63
2023-06-20T14:01:16.666Z,6.38
2023-06-20T14:03:44.592Z,5.95
2023-06-20T14:06:12.667Z,6.07
2023-06-20T14:08:40.819Z,5.75
2023-06-20T14:11:08.713Z,5.25
2023-06-20T14:13:38.056Z,5.68
2023-06-20T14:16:06.447Z,6.10
2023-06-20T14:18:34.412Z,6.00
2023-06-20T14:21:02.367Z,5.47
2023-06-20T14:23:30.267Z,5.63
2023-06-20T14:25:59.802Z,5.90
2023-06-20T14:28:30.284Z,5.53
2023-06-20T14:31:00.856Z,5.70
2023-06-20T14:33:29.024Z,6.35
2023-06-20T14:35:57.023Z,5.80
2023-06-20T14:38:24.985Z,5.55
2023-06-20T14:40:52.870Z,5.45
2023-06-20T14:43:21.425Z,5.85
2023-06-20T14:45:49.451Z,5.03
2023-06-20T14:48:19.268Z,5.40
2023-06-20T14:50:48.927Z,5.63
2023-06-20T14:53:17.577Z,5.57
2023-06-20T14:55:45.691Z,5.32
2023-06-20T14:58:13.627Z,5.65
2023-06-20T15:00:41.631Z,5.10
2023-06-20T15:03:11.325Z,5.28
2023-06-20T15:05:40.815Z,5.60
2023-06-20T15:08:08.727Z,5.50
2023-06-20T15:10:36.732Z,5.07
2023-06-20T15:13:04.890Z,5.78
2023-06-20T15:15:33.768Z,5.38
2023-06-20T15:18:02.081Z,5.25
2023-06-20T15:20:30.300Z,5.00
2023-06-20T15:22:59.593Z,5.13
2023-06-20T15:25:27.542Z,5.20
2023-06-20T15:27:55.413Z,5.15
2023-06-20T15:30:23.553Z,5.03
2023-06-20T15:32:51.634Z,5.60
2023-06-20T15:35:20.007Z,5.55
2023-06-20T15:37:47.971Z,5.35
2023-06-20T15:40:19.570Z,4.78
2023-06-20T15:42:48.444Z,5.07
2023-06-20T15:45:16.391Z,5.10
2023-06-20T15:47:44.306Z,5.07
2023-06-20T15:50:12.805Z,5.45
2023-06-20T15:52:40.952Z,5.15
2023-06-20T15:55:10.806Z,4.93
2023-06-20T15:57:40.192Z,5.22
2023-06-20T16:00:11.241Z,4.88
2023-06-20T16:02:39.651Z,5.13
2023-06-20T16:05:08.008Z,5.18
2023-06-20T16:07:36.032Z,4.97
2023-06-20T16:10:03.956Z,4.72
2023-06-20T16:12:31.981Z,5.20
2023-06-20T16:15:03.104Z,4.85
2023-06-20T16:17:31.065Z,5.20
2023-06-20T16:19:59.482Z,4.72
2023-06-20T16:22:27.546Z,5.03
2023-06-20T16:24:55.435Z,5.20
2023-06-20T16:27:23.467Z,4.95
2023-06-20T16:29:51.334Z,5.05
2023-06-20T16:32:20.631Z,5.13
2023-06-20T16:34:48.565Z,5.28
2023-06-20T16:37:16.445Z,4.93
2023-06-20T16:39:44.318Z,5.07
2023-06-20T16:42:12.631Z,5.18
2023-06-20T16:44:41.646Z,4.90
2023-06-20T16:47:10.352Z,5.40
2023-06-20T16:49:39.895Z,5.25
2023-06-20T16:52:08.726Z,4.55
2023-06-20T16:54:36.613Z,4.70
2023-06-20T16:57:05.064Z,4.63
2023-06-20T16:59:36.539Z,4.68
2023-06-20T17:02:04.710Z,4.97
2023-06-20T17:04:32.766Z,4.68
2023-06-20T17:07:02.153Z,5.00
2023-06-20T17:09:30.060Z,4.82
2023-06-20T17:11:57.958Z,5.38
2023-06-20T17:14:26.004Z,4.90
2023-06-20T17:16:55.513Z,4.93
2023-06-20T17:19:25.702Z,4.50
2023-06-20T17:22:06.324Z,5.10
2023-06-20T17:24:41.864Z,4.95
2023-06-20T17:27:11.970Z,4.68
2023-06-20T17:29:40.964Z,4.85
2023-06-20T17:32:10.862Z,4.80
2023-06-20T17:34:38.816Z,4.93
2023-06-20T17:37:07.838Z,4.95
2023-06-20T17:39:35.714Z,4.80
2023-06-20T17:42:05.382Z,4.90
2023-06-20T17:44:33.323Z,5.03
2023-06-20T17:47:02.046Z,5.13
2023-06-20T17:49:30.055Z,4.50
2023-06-20T17:51:58.059Z,4.88
2023-06-20T17:54:26.060Z,5.18
2023-06-20T17:56:54.404Z,4.90
2023-06-20T17:59:23.936Z,5.10
2023-06-20T18:01:52.033Z,4.85
2023-06-20T18:04:20.038Z,5.10
2023-06-20T18:06:47.952Z,4.88
2023-06-20T18:09:15.897Z,5.20
2023-06-20T18:11:45.531Z,5.18
2023-06-20T18:14:13.669Z,4.88
2023-06-20T18:16:43.579Z,5.18
2023-06-20T18:19:11.576Z,4.95
2023-06-20T18:21:40.962Z,5.07
2023-06-20T18:24:09.459Z,5.05
2023-06-20T18:26:37.445Z,5.45
2023-06-20T18:29:05.773Z,5.13
2023-06-20T18:31:33.808Z,4.85
2023-06-20T18:34:03.998Z,5.32
2023-06-20T18:36:33.981Z,4.90
2023-06-20T18:39:02.142Z,5.35
2023-06-20T18:41:31.930Z,4.88
2023-06-20T18:43:59.892Z,5.28
2023-06-20T18:46:27.860Z,5.22
2023-06-20T18:48:55.855Z,5.18
2023-06-20T18:51:26.734Z,5.22
2023-06-20T18:53:54.842Z,5.07
2023-06-20T18:56:22.759Z,5.22
2023-06-20T18:58:51.124Z,5.15
2023-06-20T19:01:19.266Z,5.22
2023-06-20T19:03:47.370Z,5.63
2023-06-20T19:06:15.308Z,5.38
2023-06-20T19:08:44.621Z,5.75
2023-06-20T19:11:12.590Z,5.57
2023-06-20T19:13:41.315Z,5.38
2023-06-20T19:16:09.908Z,5.63
2023-06-20T19:18:37.923Z,5.85
2023-06-20T19:21:06.212Z,5.50
2023-06-20T19:23:37.094Z,5.47
2023-06-20T19:26:06.436Z,5.63
2023-06-20T19:28:34.363Z,5.38
2023-06-20T19:31:02.419Z,5.75
2023-06-20T19:33:30.404Z,5.32
2023-06-20T19:35:58.307Z,5.57
2023-06-20T19:38:26.192Z,5.90
2023-06-20T19:40:54.138Z,5.45
2023-06-20T19:43:23.768Z,5.78
2023-06-20T19:45:51.705Z,5.43
2023-06-20T19:48:19.724Z,5.25
2023-06-20T19:50:47.615Z,5.88
2023-06-20T19:53:15.510Z,5.28
2023-06-20T19:55:43.470Z,5.72
2023-06-20T19:58:11.360Z,5.85
2023-06-20T20:00:40.686Z,5.75
2023-06-20T20:03:11.656Z,6.10
2023-06-20T20:05:40.063Z,6.10
2023-06-20T20:08:07.985Z,5.95
2023-06-20T20:10:35.949Z,5.85
2023-06-20T20:13:03.967Z,5.78
2023-06-20T20:15:31.903Z,6.15
2023-06-20T20:18:03.368Z,6.10
2023-06-20T20:20:34.072Z,5.95
2023-06-20T20:23:02.481Z,5.57
2023-06-20T20:25:30.410Z,5.80
2023-06-20T20:27:58.429Z,5.88
2023-06-20T20:30:26.598Z,6.50
2023-06-20T20:32:54.899Z,6.20
2023-06-20T20:35:25.659Z,6.03
2023-06-20T20:37:53.822Z,6.32
2023-06-20T20:40:21.914Z,6.47
2023-06-20T20:42:50.605Z,6.13
2023-06-20T20:45:20.010Z,6.43
2023-06-20T20:47:48.029Z,6.45
2023-06-20T20:50:16.331Z,6.28
2023-06-20T20:52:46.489Z,6.22
2023-06-20T20:55:14.514Z,7.07
2023-06-20T20:57:43.889Z,6.45
2023-06-20T21:00:13.934Z,6.90
2023-06-20T21:02:42.464Z,6.00
2023-06-20T21:05:10.955Z,6.47
2023-06-20T21:07:38.864Z,6.05
2023-06-20T21:10:09.319Z,6.10
2023-06-20T21:12:37.360Z,6.38
2023-06-20T21:15:05.935Z,6.00
2023-06-20T21:17:33.960Z,5.90
2023-06-20T21:20:01.890Z,5.50
2023-06-20T21:22:29.799Z,5.20
2023-06-20T21:24:57.835Z,5.13
2023-06-20T21:27:27.110Z,4.90
2023-06-20T21:29:55.018Z,5.15
2023-06-20T21:32:23.776Z,4.40
2023-06-20T21:34:51.702Z,4.78
2023-06-20T21:37:19.785Z,4.40
2023-06-20T21:39:47.665Z,4.57
2023-06-20T21:42:15.962Z,4.30
2023-06-20T21:44:45.309Z,4.43
2023-06-20T21:47:14.436Z,4.20
2023-06-20T21:49:42.545Z,4.40
2023-06-20T21:52:10.477Z,4.18
2023-06-20T21:54:38.413Z,4.30
2023-06-20T21:57:07.015Z,4.13
2023-06-20T21:59:36.160Z,4.30
2023-06-20T22:02:06.548Z,4.68
2023-06-20T22:04:34.474Z,4.32
2023-06-20T22:07:02.451Z,4.40
2023-06-20T22:09:30.383Z,5.07
2023-06-20T22:11:58.417Z,4.18
2023-06-20T22:14:27.360Z,4.50
2023-06-20T22:16:55.441Z,4.20
2023-06-20T22:19:24.815Z,4.43
2023-06-20T22:21:52.780Z,4.25
2023-06-20T22:24:20.689Z,4.47
2023-06-20T22:26:50.282Z,4.53
2023-06-20T22:29:20.240Z,4.63
2023-06-20T22:31:48.318Z,4.35
2023-06-20T22:34:16.272Z,4.50
2023-06-20T22:36:45.561Z,4.63
2023-06-20T22:39:13.701Z,4.28
2023-06-20T22:41:42.173Z,3.80
2023-06-20T22:44:10.101Z,4.40
2023-06-20T22:46:38.164Z,4.28
2023-06-20T22:49:07.057Z,4.50
2023-06-20T22:51:36.666Z,4.80
2023-06-20T22:54:06.007Z,4.25
2023-06-20T22:56:36.592Z,4.10
2023-06-20T22:59:04.476Z,4.78
2023-06-20T23:01:32.423Z,3.70
2023-06-20T23:04:00.330Z,4.25
2023-06-20T23:06:28.229Z,4.10
2023-06-20T23:08:56.163Z,3.85
2023-06-20T23:11:25.618Z,3.97
2023-06-20T23:13:53.631Z,4.30
2023-06-20T23:16:22.628Z,4.18
2023-06-20T23:18:50.808Z,3.60
2023-06-20T23:21:20.265Z,3.35
2023-06-20T23:23:51.326Z,3.63
2023-06-20T23:26:19.797Z,3.70
2023-06-20T23:28:49.851Z,3.72
2023-06-20T23:31:18.992Z,4.17
2023-06-20T23:33:47.051Z,4.03
2023-06-20T23:36:17.200Z,3.70
2023-06-20T23:38:45.379Z,3.50
2023-06-20T23:41:13.622Z,3.77
2023-06-20T23:43:44.933Z,3.83
2023-06-20T23:46:15.231Z,3.53
2023-06-20T23:48:43.564Z,3.47
2023-06-20T23:51:11.456Z,3.63
2023-06-20T23:53:39.518Z,3.92
2023-06-20T23:56:07.427Z,3.80
2023-06-20T23:58:35.341Z,3.90
